Strona główna
METAR-TAF:

METAR-TAF

Lotnisko :

Port lotniczy Janina

Janina, Grecja

Szerokość geograficzna: 39-41-47N, Długość geograficzna: 20-49-21E, wysokość: 475 m

Aktualna obserwacja pogody

Raport powstał 46 minut temu, godzina 10:20 UTC
Wiatr 2 kt z kierunków zmiennych
Temperatura 12°C
Wilgotność 58%
Ciśnienie 1020 hPa
Widzialność 10 km lub więcej
Brak chmur poniżej 1500 m i brak chmur cumulonimbus

METAR: LGIO 181020Z VRB02KT CAVOK 12/04 Q1020

czas: 13:06 (11:06 UTC)

Prognoza

Raport powstał 3 godziny i 6 minut temu, godzina 08:00 UTC
Prognoza ważna od 18 godzina 09 UTC do 18 godzina 18 UTC
Wiatr 3 kt z kierunków zmiennych
Widzialność: 0100 m
Zachmurzenie całkowite na wysokości 100 ft
mgła
Stopniowe zmiany
od 18 godzina 09 UTC do 18 godzina 11 UTC
Widzialność 10 km lub więcej
Mało chmury na wysokości 3000 ft

TAF: LGIO 180800Z 1809/1818 VRB03KT 0100 FG OVC001 BECMG 1809/1811 9999 FEW030

Obserwacja i prognoza pogody dla ponad 4000 lotnisk (raport METAR i TAF).

Dostępne stacje oznaczono żółtymi i czerwonymi punktami na mapie.

Najedź kursorem aby zobaczyć nazwę stacji.

Kliknij aby zobaczyć obserwacje i prognozy pogody.

Aby zmienić mapę: kliknij na zielony przycisk z czarnym krzyżykiem, aby powiększyć; na zielony przycisk z myślnikiem, aby pomniejszyć; na zielone strzałki, aby przejść do map sąsiednich.


METAR-TAF: